Time;durP1;ratioP1;P1;durP2;ratioP2;P2;SDS_P1;SDS_P2;PMS_P1;PMS_P2;Temp;Humidity;BMP_temperature;BMP_pressure;BME280_temperature;BME280_humidity;BME280_pressure;Samples;Min_cycle;Max_cycle;Signal;HPM_P1;HPM_P2
2022/11/18 00:01:05;;;;;;;4.05;1.92;;;11.60;71.10;;;;;;4980314;28;20050;-85
2022/11/18 00:03:50;;;;;;;2.92;1.58;;;11.50;71.00;;;;;;4977441;28;20041;-84
2022/11/18 00:06:35;;;;;;;3.83;1.70;;;11.50;71.00;;;;;;4960326;28;20135;-83
2022/11/18 00:09:20;;;;;;;3.53;1.63;;;11.50;71.00;;;;;;4981158;28;20101;-84
2022/11/18 00:15:07;;;;;;;4.47;1.73;;;11.50;71.10;;;;;;4979332;28;20053;-83
2022/11/18 00:17:52;;;;;;;4.65;1.40;;;11.40;70.90;;;;;;4972734;28;20069;-82
2022/11/18 00:20:38;;;;;;;3.08;1.55;;;11.40;70.90;;;;;;4983131;28;20045;-83
2022/11/18 00:23:22;;;;;;;2.53;1.50;;;11.40;71.00;;;;;;4982012;28;20136;-83
2022/11/18 00:26:09;;;;;;;4.03;1.70;;;11.40;71.00;;;;;;4985417;28;20616;-84
2022/11/18 00:28:53;;;;;;;6.20;2.58;;;11.40;71.00;;;;;;4979684;28;20505;-83
2022/11/18 00:31:38;;;;;;;4.90;1.80;;;11.30;70.90;;;;;;4978490;28;20097;-83
2022/11/18 00:34:23;;;;;;;3.90;1.35;;;11.30;70.90;;;;;;4974214;28;20386;-83
2022/11/18 00:37:07;;;;;;;3.80;1.88;;;11.30;71.00;;;;;;4971925;28;20049;-83
2022/11/18 00:39:52;;;;;;;4.50;1.80;;;11.30;71.00;;;;;;4968405;28;20706;-84
2022/11/18 00:42:52;;;;;;;6.55;1.77;;;11.30;71.00;;;;;;4978914;28;20485;-83
2022/11/18 00:45:37;;;;;;;8.63;2.28;;;11.20;70.90;;;;;;4971218;28;20046;-83
2022/11/18 00:48:22;;;;;;;4.10;1.52;;;11.20;70.90;;;;;;4984462;28;20084;-85
2022/11/18 00:51:15;;;;;;;3.28;1.77;;;11.20;71.00;;;;;;4977612;28;20402;-83
2022/11/18 00:54:00;;;;;;;5.72;2.00;;;11.10;70.80;;;;;;4969669;28;20401;-82
2022/11/18 00:56:45;;;;;;;3.65;1.20;;;11.20;71.00;;;;;;4982314;28;20053;-83
2022/11/18 00:59:30;;;;;;;2.15;1.40;;;11.10;70.80;;;;;;4980282;28;20103;-84
2022/11/18 01:02:14;;;;;;;3.42;1.50;;;11.10;70.90;;;;;;4983543;28;20139;-84
2022/11/18 01:04:59;;;;;;;2.83;1.77;;;11.10;70.90;;;;;;4977743;28;20560;-85
2022/11/18 01:07:45;;;;;;;2.45;1.33;;;11.10;70.90;;;;;;4977060;28;20485;-84
2022/11/18 01:10:29;;;;;;;4.65;1.90;;;11.10;71.00;;;;;;4978973;28;20197;-84
2022/11/18 01:13:20;;;;;;;2.05;1.65;;;11.10;71.00;;;;;;4983279;28;20045;-84
2022/11/18 01:16:04;;;;;;;3.95;1.40;;;11.10;71.00;;;;;;4977814;28;20096;-84
2022/11/18 01:18:49;;;;;;;4.72;1.70;;;11.00;70.80;;;;;;4985134;28;20165;-83
2022/11/18 01:21:33;;;;;;;2.25;1.23;;;11.00;70.80;;;;;;4974961;28;20541;-83
2022/11/18 01:24:18;;;;;;;1.92;1.23;;;11.00;70.80;;;;;;4971236;28;20512;-83
2022/11/18 01:27:03;;;;;;;2.20;1.15;;;11.00;70.90;;;;;;4975399;28;20405;-83
2022/11/18 01:29:47;;;;;;;4.57;1.60;;;11.00;70.90;;;;;;4983969;28;20249;-83
2022/11/18 01:32:31;;;;;;;2.97;1.70;;;11.00;70.90;;;;;;4983056;28;20084;-83
2022/11/18 01:35:16;;;;;;;1.75;1.40;;;10.90;70.80;;;;;;4985408;28;20456;-82
2022/11/18 01:38:01;;;;;;;5.47;1.48;;;11.00;71.00;;;;;;4980095;28;20497;-84
2022/11/18 01:40:45;;;;;;;3.55;1.40;;;10.90;70.90;;;;;;4975466;28;20112;-84
2022/11/18 01:43:54;;;;;;;3.58;2.08;;;10.90;70.90;;;;;;4979618;28;20069;-84
2022/11/18 01:46:38;;;;;;;3.05;1.33;;;10.90;71.00;;;;;;4978670;28;21157;-83
2022/11/18 01:49:24;;;;;;;4.07;1.73;;;10.90;71.00;;;;;;4969050;28;20050;-84
2022/11/18 01:52:09;;;;;;;2.42;1.38;;;10.90;71.00;;;;;;4974805;28;20037;-83
2022/11/18 01:54:57;;;;;;;4.72;2.13;;;10.90;71.00;;;;;;4983723;28;20065;-83
2022/11/18 01:57:45;;;;;;;3.60;1.83;;;10.80;70.90;;;;;;4982119;28;20721;-83
2022/11/18 02:00:29;;;;;;;3.42;1.73;;;10.80;70.90;;;;;;4976745;28;20037;-82
2022/11/18 02:03:16;;;;;;;3.42;1.42;;;10.80;71.00;;;;;;4957657;28;20695;-82
2022/11/18 02:06:03;;;;;;;4.53;1.13;;;10.80;71.00;;;;;;4983863;28;20096;-82
2022/11/18 02:08:48;;;;;;;8.68;1.98;;;10.80;71.00;;;;;;4982851;28;20097;-84
2022/11/18 02:11:53;;;;;;;2.80;1.20;;;10.90;71.20;;;;;;4978990;28;20624;-82
2022/11/18 02:14:41;;;;;;;3.95;1.63;;;10.90;71.20;;;;;;4966735;28;20078;-84
2022/11/18 02:17:43;;;;;;;3.00;1.35;;;10.80;71.00;;;;;;4975548;28;20045;-84
2022/11/18 02:20:31;;;;;;;5.25;1.45;;;10.80;71.30;;;;;;4981479;28;20072;-82
2022/11/18 02:23:44;;;;;;;5.68;1.85;;;10.80;71.10;;;;;;4978695;28;20520;-80
2022/11/18 02:26:47;;;;;;;4.93;1.63;;;10.80;71.20;;;;;;4975126;28;20454;-80
2022/11/18 02:29:39;;;;;;;3.80;1.70;;;10.80;71.20;;;;;;4974740;28;20442;-81
2022/11/18 02:32:28;;;;;;;3.72;1.73;;;10.70;71.00;;;;;;4979917;28;20049;-80
2022/11/18 02:35:24;;;;;;;3.70;2.03;;;10.80;71.30;;;;;;4984540;28;20215;-80
2022/11/18 02:38:38;;;;;;;2.03;1.20;;;10.70;71.10;;;;;;4983799;28;20381;-80
2022/11/18 02:41:26;;;;;;;3.22;1.40;;;10.70;71.10;;;;;;4977490;28;20072;-80
2022/11/18 02:44:16;;;;;;;3.85;1.33;;;10.70;71.10;;;;;;4982234;28;20528;-80
2022/11/18 02:47:05;;;;;;;3.97;1.67;;;10.70;71.20;;;;;;4982565;28;20064;-80
2022/11/18 02:49:56;;;;;;;5.82;1.70;;;10.70;71.20;;;;;;4984933;28;20076;-80
2022/11/18 02:52:43;;;;;;;2.60;1.30;;;10.70;71.30;;;;;;4986334;28;20088;-80
2022/11/18 02:55:32;;;;;;;2.72;1.20;;;10.70;71.30;;;;;;4976420;28;20045;-81
2022/11/18 02:58:19;;;;;;;2.53;1.50;;;10.70;71.30;;;;;;4985264;28;20138;-81
2022/11/18 03:01:03;;;;;;;5.03;2.03;;;10.70;71.30;;;;;;4985915;28;20064;-85
2022/11/18 03:03:49;;;;;;;1.88;1.25;;;10.70;71.30;;;;;;4988586;28;20117;-85
2022/11/18 03:06:36;;;;;;;5.53;1.65;;;10.70;71.30;;;;;;4984923;28;20048;-85
2022/11/18 03:09:29;;;;;;;2.78;1.15;;;10.70;71.40;;;;;;4990129;28;20154;-82
2022/11/18 03:12:25;;;;;;;2.90;1.27;;;10.70;71.40;;;;;;4975527;28;20093;-77
2022/11/18 03:15:38;;;;;;;4.03;1.70;;;10.70;71.40;;;;;;4977438;28;20477;-81
2022/11/18 03:18:41;;;;;;;2.42;1.05;;;10.70;71.40;;;;;;4981424;28;20053;-80
2022/11/18 03:21:39;;;;;;;6.95;3.05;;;10.70;71.40;;;;;;4991790;28;20049;-80
2022/11/18 03:24:32;;;;;;;3.63;1.67;;;10.70;71.40;;;;;;4990769;28;20108;-79
2022/11/18 03:27:22;;;;;;;3.15;1.52;;;10.60;71.80;;;;;;4990919;28;20374;-80
2022/11/18 03:30:11;;;;;;;1.90;1.25;;;10.60;71.30;;;;;;4990206;28;20046;-80
2022/11/18 03:33:04;;;;;;;5.30;1.42;;;10.60;71.40;;;;;;4989528;28;20143;-80
2022/11/18 03:35:52;;;;;;;3.45;1.20;;;10.60;71.40;;;;;;4991274;28;20409;-79
2022/11/18 03:38:42;;;;;;;4.53;1.42;;;10.60;71.40;;;;;;4991153;28;20504;-80
2022/11/18 03:41:30;;;;;;;6.03;2.10;;;10.60;71.50;;;;;;4976714;28;20122;-81
2022/11/18 03:44:21;;;;;;;4.25;1.55;;;10.60;71.50;;;;;;4982596;28;20038;-80
2022/11/18 03:47:11;;;;;;;4.68;1.48;;;10.50;71.30;;;;;;4985720;28;20058;-83
2022/11/18 03:50:01;;;;;;;3.38;1.27;;;10.50;71.30;;;;;;4989858;28;20525;-83
2022/11/18 03:52:47;;;;;;;2.72;1.05;;;10.50;71.40;;;;;;4980610;28;20037;-81
2022/11/18 03:55:39;;;;;;;3.97;1.70;;;10.50;71.40;;;;;;4988423;28;20045;-80
2022/11/18 03:58:35;;;;;;;5.53;1.48;;;10.50;71.40;;;;;;4988873;28;20163;-80
2022/11/18 04:01:51;;;;;;;5.00;1.55;;;10.50;71.40;;;;;;4989132;28;20093;-81
2022/11/18 04:04:36;;;;;;;3.88;1.20;;;10.50;71.50;;;;;;4990570;28;20426;-81
2022/11/18 04:07:32;;;;;;;2.25;1.30;;;10.50;71.40;;;;;;4974283;28;20489;-80
2022/11/18 04:10:39;;;;;;;4.50;1.35;;;10.50;71.50;;;;;;4977389;28;20064;-80
2022/11/18 04:13:27;;;;;;;2.90;1.35;;;10.50;71.50;;;;;;4983785;28;20057;-81
2022/11/18 04:16:12;;;;;;;3.58;1.65;;;10.50;71.50;;;;;;4972418;28;20046;-81
2022/11/18 04:18:56;;;;;;;3.83;1.58;;;10.40;71.40;;;;;;4981854;28;20180;-81
2022/11/18 04:21:41;;;;;;;4.40;1.73;;;10.40;71.40;;;;;;4978022;28;20040;-81
2022/11/18 04:24:26;;;;;;;5.65;1.70;;;10.40;71.40;;;;;;4979867;28;20052;-81
2022/11/18 04:27:11;;;;;;;2.90;1.95;;;10.40;71.50;;;;;;4989594;28;20096;-81
2022/11/18 04:29:55;;;;;;;8.52;2.67;;;10.40;71.50;;;;;;4979039;28;20069;-82
2022/11/18 04:32:40;;;;;;;7.43;2.65;;;10.40;71.50;;;;;;4990131;28;20053;-83
2022/11/18 04:35:26;;;;;;;3.88;1.90;;;10.30;71.40;;;;;;4990077;28;20037;-82
2022/11/18 04:38:10;;;;;;;5.38;2.05;;;10.30;71.40;;;;;;4987535;28;20397;-81
2022/11/18 04:40:55;;;;;;;4.57;2.10;;;10.30;71.40;;;;;;4989951;28;20101;-83
2022/11/18 04:43:40;;;;;;;3.97;1.98;;;10.30;71.50;;;;;;4988520;28;20120;-84
2022/11/18 04:46:24;;;;;;;7.65;2.90;;;10.30;71.50;;;;;;4977423;28;20053;-83
2022/11/18 04:49:11;;;;;;;4.13;2.20;;;10.30;71.50;;;;;;4989488;28;20108;-83
2022/11/18 04:51:56;;;;;;;5.70;2.30;;;10.30;71.50;;;;;;4977357;28;20057;-83
2022/11/18 04:54:40;;;;;;;6.72;2.42;;;10.30;71.60;;;;;;4989726;28;20089;-83
2022/11/18 04:57:25;;;;;;;5.78;1.88;;;10.30;71.60;;;;;;4977307;28;20033;-83
2022/11/18 05:00:10;;;;;;;6.72;1.77;;;10.20;71.40;;;;;;4986341;28;20037;-82
2022/11/18 05:02:54;;;;;;;6.35;2.13;;;10.30;71.60;;;;;;4987565;28;20096;-83
2022/11/18 05:05:39;;;;;;;7.97;2.97;;;10.30;71.60;;;;;;4978926;28;20038;-83
2022/11/18 05:08:24;;;;;;;8.30;2.40;;;10.30;71.60;;;;;;4987356;28;20069;-83
2022/11/18 05:14:12;;;;;;;5.95;2.20;;;10.20;71.50;;;;;;4977606;28;20073;-83
2022/11/18 05:16:59;;;;;;;4.80;1.88;;;10.30;71.70;;;;;;4972530;28;20049;-84
2022/11/18 05:19:44;;;;;;;5.68;1.77;;;10.30;71.60;;;;;;4991657;28;20052;-83
2022/11/18 05:22:28;;;;;;;5.82;1.80;;;10.30;71.60;;;;;;4983948;28;20103;-83
2022/11/18 05:25:13;;;;;;;4.93;1.70;;;10.30;71.60;;;;;;4993258;28;20460;-85
2022/11/18 05:27:58;;;;;;;10.20;2.75;;;10.30;71.60;;;;;;4976440;28;20041;-83
2022/11/18 05:30:42;;;;;;;5.50;1.73;;;10.30;71.60;;;;;;4988872;28;20049;-83
2022/11/18 05:33:27;;;;;;;4.65;2.28;;;10.30;71.70;;;;;;4992652;28;20084;-82
2022/11/18 05:36:14;;;;;;;4.28;1.80;;;10.30;71.70;;;;;;4992961;28;20506;-83
2022/11/18 05:38:59;;;;;;;7.75;2.10;;;10.30;71.70;;;;;;4989331;28;20049;-83
2022/11/18 05:44:47;;;;;;;8.57;3.45;;;10.30;71.70;;;;;;4984084;28;20040;-83
2022/11/18 05:47:58;;;;;;;4.55;2.03;;;10.30;71.70;;;;;;4982426;28;20359;-83
2022/11/18 05:50:37;;;;;;;7.90;2.00;;;10.30;71.70;;;;;;4982251;28;20188;-81
2022/11/18 05:53:23;;;;;;;7.18;1.88;;;10.30;71.70;;;;;;4987124;28;20088;-83
2022/11/18 05:56:20;;;;;;;9.07;2.60;;;10.30;71.70;;;;;;4990379;28;20513;-82
2022/11/18 05:59:05;;;;;;;5.10;2.25;;;10.30;71.70;;;;;;4988863;28;20045;-83
2022/11/18 06:02:10;;;;;;;5.38;1.88;;;10.20;71.50;;;;;;4996613;28;20077;-84
2022/11/18 06:05:00;;;;;;;4.85;2.17;;;10.20;71.50;;;;;;4983914;28;20294;-88
2022/11/18 06:07:45;;;;;;;6.82;2.30;;;10.20;71.60;;;;;;4983698;28;20564;-85
2022/11/18 06:10:33;;;;;;;7.78;2.20;;;10.20;71.60;;;;;;4978579;28;20053;-81
2022/11/18 06:13:24;;;;;;;5.18;2.00;;;10.20;71.60;;;;;;4988961;28;20048;-82
2022/11/18 06:16:11;;;;;;;5.40;1.90;;;10.20;71.60;;;;;;4965228;28;20121;-82
2022/11/18 06:18:57;;;;;;;7.93;2.28;;;10.20;71.60;;;;;;4971645;28;20053;-84
2022/11/18 06:21:43;;;;;;;5.43;2.00;;;10.20;71.70;;;;;;4968332;28;20537;-80
2022/11/18 06:24:28;;;;;;;7.70;3.55;;;10.20;71.70;;;;;;4983297;28;20088;-88
2022/11/18 06:27:14;;;;;;;8.60;2.63;;;10.20;71.70;;;;;;4985899;28;20046;-83
2022/11/18 06:29:59;;;;;;;5.85;2.20;;;10.20;71.70;;;;;;4974357;28;20070;-83
2022/11/18 06:32:43;;;;;;;4.70;2.10;;;10.20;71.70;;;;;;4983688;28;20792;-83
2022/11/18 06:35:28;;;;;;;5.80;2.13;;;10.20;71.70;;;;;;4984149;28;20462;-80
2022/11/18 06:38:12;;;;;;;4.72;2.13;;;10.20;71.80;;;;;;4982905;28;20097;-82
2022/11/18 06:40:59;;;;;;;5.00;2.25;;;10.20;71.80;;;;;;4963281;28;20137;-81
2022/11/18 06:43:43;;;;;;;4.20;2.15;;;10.10;71.70;;;;;;4972780;28;20061;-83
2022/11/18 06:49:31;;;;;;;7.32;2.38;;;10.20;71.90;;;;;;4982070;28;20532;-82
2022/11/18 06:52:16;;;;;;;4.30;1.92;;;10.10;71.70;;;;;;4984002;28;20053;-82
2022/11/18 06:55:01;;;;;;;5.65;1.88;;;10.10;71.70;;;;;;4988132;28;20037;-80
2022/11/18 06:57:45;;;;;;;6.38;1.75;;;10.10;71.70;;;;;;4981630;28;20041;-90
2022/11/18 07:00:30;;;;;;;5.07;1.70;;;10.00;71.60;;;;;;4984506;28;20061;-84
2022/11/18 07:03:14;;;;;;;6.32;1.92;;;10.00;71.60;;;;;;4985186;28;20122;-84
2022/11/18 07:05:59;;;;;;;7.47;2.05;;;10.00;71.60;;;;;;4979802;28;20046;-85
2022/11/18 07:08:44;;;;;;;4.65;1.73;;;10.00;71.70;;;;;;4983922;28;20092;-82
2022/11/18 07:11:29;;;;;;;6.57;2.35;;;10.00;71.70;;;;;;4987951;28;20441;-83
2022/11/18 07:14:14;;;;;;;4.72;1.70;;;10.00;71.80;;;;;;4986588;28;20170;-83
2022/11/18 07:16:58;;;;;;;4.50;2.03;;;9.90;71.60;;;;;;4970737;28;20045;-80
2022/11/18 07:19:43;;;;;;;5.53;2.05;;;9.90;71.70;;;;;;4977361;28;20081;-83
2022/11/18 07:22:27;;;;;;;4.05;2.20;;;9.90;71.70;;;;;;4978922;28;20309;-82
2022/11/18 07:25:12;;;;;;;5.72;1.88;;;9.90;71.60;;;;;;4984660;28;20112;-82
2022/11/18 07:27:58;;;;;;;2.42;1.55;;;9.90;71.60;;;;;;4985471;28;20048;-78
2022/11/18 07:30:42;;;;;;;3.42;1.70;;;9.90;71.60;;;;;;4970966;28;20076;-79
2022/11/18 07:33:27;;;;;;;6.68;2.30;;;9.90;71.70;;;;;;4987796;28;20068;-77
2022/11/18 07:36:12;;;;;;;8.75;3.72;;;9.90;71.80;;;;;;4966197;28;20293;-78
2022/11/18 07:39:01;;;;;;;4.45;1.65;;;9.90;72.00;;;;;;4985601;28;20061;-78
2022/11/18 07:41:45;;;;;;;4.85;1.70;;;10.00;72.30;;;;;;4986404;28;20041;-78
2022/11/18 07:44:31;;;;;;;8.00;3.33;;;10.00;72.40;;;;;;4985485;28;20072;-82
2022/11/18 07:47:15;;;;;;;4.65;2.90;;;10.10;72.70;;;;;;4978690;28;20065;-82
2022/11/18 07:50:00;;;;;;;8.98;4.40;;;10.10;72.80;;;;;;4979720;28;20046;-88
2022/11/18 07:52:44;;;;;;;8.27;4.65;;;10.20;73.20;;;;;;4978447;28;20093;-77
2022/11/18 07:55:29;;;;;;;10.10;4.32;;;10.30;73.50;;;;;;4986909;28;20434;-78
2022/11/18 07:58:14;;;;;;;9.73;3.92;;;10.30;73.50;;;;;;4984222;28;20234;-78
2022/11/18 08:01:05;;;;;;;5.30;3.97;;;10.40;73.80;;;;;;4985345;28;20073;-81
2022/11/18 08:03:50;;;;;;;6.03;3.78;;;10.40;73.80;;;;;;4986580;28;20057;-78
2022/11/18 08:06:35;;;;;;;6.32;3.78;;;10.40;73.80;;;;;;4979164;28;20070;-82
2022/11/18 08:09:19;;;;;;;5.40;3.85;;;10.40;73.80;;;;;;4978284;28;20048;-83
2022/11/18 08:12:04;;;;;;;6.97;4.28;;;10.40;73.80;;;;;;4969385;28;20132;-82
2022/11/18 08:14:48;;;;;;;7.32;3.25;;;10.40;73.90;;;;;;4970050;28;20528;-87
2022/11/18 08:17:33;;;;;;;5.78;3.00;;;10.40;73.90;;;;;;4975922;28;20093;-87
2022/11/18 08:20:17;;;;;;;5.82;2.90;;;10.40;73.90;;;;;;4976254;28;20049;-84
2022/11/18 08:23:02;;;;;;;4.55;2.80;;;10.40;73.90;;;;;;4984773;28;20093;-86
2022/11/18 08:25:46;;;;;;;5.35;2.80;;;10.40;73.90;;;;;;4974213;28;20536;-86
2022/11/18 08:28:31;;;;;;;3.65;2.72;;;10.40;73.90;;;;;;4986535;28;20085;-88
2022/11/18 08:31:21;;;;;;;6.15;2.85;;;10.50;74.00;;;;;;4980880;28;20088;-86
2022/11/18 08:34:06;;;;;;;5.32;3.38;;;10.50;74.10;;;;;;4986383;28;20044;-84
2022/11/18 08:36:50;;;;;;;5.32;2.60;;;10.50;73.90;;;;;;4983827;28;20271;-84
2022/11/18 08:39:35;;;;;;;2.63;2.15;;;10.50;73.90;;;;;;4965494;28;20526;-83
2022/11/18 08:42:21;;;;;;;4.18;2.45;;;10.50;73.90;;;;;;4980031;28;20077;-83
2022/11/18 08:45:09;;;;;;;2.63;2.35;;;10.40;73.70;;;;;;4958838;28;20287;-83
2022/11/18 08:47:53;;;;;;;3.38;2.33;;;10.50;73.80;;;;;;4985266;28;20390;-85
2022/11/18 08:50:38;;;;;;;4.25;2.42;;;10.50;73.70;;;;;;4983529;28;20057;-84
2022/11/18 08:53:22;;;;;;;3.95;1.73;;;10.50;73.60;;;;;;4985885;28;20045;-81
2022/11/18 08:56:22;;;;;;;4.28;2.13;;;10.60;73.80;;;;;;4977389;28;20077;-82
2022/11/18 08:59:07;;;;;;;4.40;2.15;;;10.50;73.50;;;;;;4971277;28;20048;-82
2022/11/18 09:01:51;;;;;;;2.03;1.83;;;10.60;73.60;;;;;;4982957;28;20279;-80
2022/11/18 09:04:36;;;;;;;3.42;1.95;;;10.60;73.60;;;;;;4985639;28;20037;-79
2022/11/18 09:07:21;;;;;;;7.18;2.42;;;10.60;73.50;;;;;;4981762;28;20609;-86
2022/11/18 09:10:06;;;;;;;4.10;1.52;;;10.60;73.40;;;;;;4984320;28;20149;-85
2022/11/18 09:12:51;;;;;;;2.55;1.50;;;10.60;73.40;;;;;;4986895;28;20430;-83
2022/11/18 09:15:35;;;;;;;2.42;1.60;;;10.70;73.50;;;;;;4982102;28;20406;-83
2022/11/18 09:18:20;;;;;;;5.03;1.88;;;10.70;73.40;;;;;;4980347;28;20069;-85
2022/11/18 09:21:07;;;;;;;3.53;1.52;;;10.70;73.40;;;;;;4985097;28;20050;-87
2022/11/18 09:23:52;;;;;;;3.58;1.40;;;10.80;73.50;;;;;;4974729;28;20142;-86
2022/11/18 09:26:37;;;;;;;3.58;1.63;;;10.80;73.40;;;;;;4984287;28;20084;-88
2022/11/18 09:29:24;;;;;;;2.35;1.30;;;10.80;73.30;;;;;;4985290;28;20092;-86
2022/11/18 09:32:09;;;;;;;3.60;1.60;;;10.90;73.40;;;;;;4983347;28;20513;-83
2022/11/18 09:34:53;;;;;;;2.92;1.00;;;11.00;73.40;;;;;;4986266;28;20391;-88
2022/11/18 09:37:38;;;;;;;4.45;1.08;;;11.10;73.20;;;;;;4982556;28;20057;-81
2022/11/18 09:40:23;;;;;;;2.92;1.27;;;11.20;73.20;;;;;;4977301;28;20121;-82
2022/11/18 09:43:19;;;;;;;5.45;1.23;;;11.20;73.10;;;;;;4983095;28;20045;-79
2022/11/18 09:46:31;;;;;;;2.72;1.00;;;11.20;72.90;;;;;;4978692;28;20097;-81
2022/11/18 09:49:30;;;;;;;2.63;1.10;;;11.30;73.00;;;;;;4986607;28;20049;-80
2022/11/18 09:52:28;;;;;;;4.55;1.77;;;11.30;72.90;;;;;;4988171;28;20076;-82
2022/11/18 09:55:15;;;;;;;3.33;1.20;;;11.30;72.90;;;;;;4986977;28;20044;-81
2022/11/18 09:58:00;;;;;;;1.83;1.60;;;11.30;72.80;;;;;;4986810;28;20101;-83
2022/11/18 10:00:45;;;;;;;4.40;1.10;;;11.30;72.80;;;;;;4982221;28;20497;-79
2022/11/18 10:03:32;;;;;;;2.58;1.33;;;11.30;72.70;;;;;;4980599;28;20065;-79
2022/11/18 10:06:28;;;;;;;2.75;1.00;;;11.40;72.80;;;;;;4984336;28;20049;-79
2022/11/18 10:09:18;;;;;;;2.58;1.10;;;11.40;72.70;;;;;;4983573;28;20041;-79
2022/11/18 10:12:14;;;;;;;2.83;1.00;;;11.40;72.70;;;;;;4983800;28;20062;-85
2022/11/18 10:15:14;;;;;;;2.60;1.05;;;11.40;72.60;;;;;;4984912;28;20104;-90
2022/11/18 10:18:24;;;;;;;4.18;1.30;;;11.40;72.60;;;;;;4980231;28;20533;-89
2022/11/18 10:21:24;;;;;;;2.70;1.17;;;11.50;72.60;;;;;;4983877;28;20076;-79
2022/11/18 10:24:19;;;;;;;4.50;1.48;;;11.50;72.60;;;;;;4977937;28;20049;-81
2022/11/18 10:27:13;;;;;;;5.13;1.13;;;11.50;72.50;;;;;;4985777;28;20604;-82
2022/11/18 10:30:00;;;;;;;6.10;1.40;;;11.60;72.60;;;;;;4987851;28;20132;-82
2022/11/18 10:32:58;;;;;;;3.53;0.93;;;11.60;72.40;;;;;;4987613;28;20639;-85
2022/11/18 10:35:42;;;;;;;3.45;1.10;;;11.60;72.30;;;;;;4988987;28;20049;-88
2022/11/18 10:38:27;;;;;;;2.53;1.42;;;11.70;72.40;;;;;;4978939;28;20557;-79
2022/11/18 10:41:15;;;;;;;5.15;1.42;;;11.70;72.40;;;;;;4988811;28;20542;-90
2022/11/18 10:44:00;;;;;;;3.20;1.35;;;11.80;72.40;;;;;;4988038;28;20086;-85
2022/11/18 10:46:45;;;;;;;3.67;1.05;;;11.90;72.40;;;;;;4979379;28;20057;-86
2022/11/18 10:49:37;;;;;;;3.72;0.85;;;12.00;72.40;;;;;;4982071;28;20046;-80
2022/11/18 10:52:22;;;;;;;2.78;1.20;;;12.00;72.10;;;;;;4986449;28;20397;-83
2022/11/18 10:55:28;;;;;;;3.55;1.38;;;12.10;72.10;;;;;;4986910;28;20458;-84
2022/11/18 10:58:15;;;;;;;4.53;1.45;;;12.20;72.10;;;;;;4989056;28;20505;-89
2022/11/18 11:01:04;;;;;;;4.60;1.40;;;12.20;72.10;;;;;;4987046;28;20105;-86
2022/11/18 11:04:21;;;;;;;6.07;2.10;;;12.30;72.20;;;;;;4986924;28;20041;-86
2022/11/18 11:07:30;;;;;;;5.82;1.33;;;12.50;72.30;;;;;;4986848;28;20564;-90
2022/11/18 11:10:22;;;;;;;5.10;1.65;;;12.70;72.20;;;;;;4986278;28;20053;-89
2022/11/18 11:13:14;;;;;;;4.07;1.00;;;12.80;72.10;;;;;;4986875;28;20134;-85
2022/11/18 11:16:04;;;;;;;3.00;1.00;;;13.00;72.10;;;;;;4982284;28;20121;-86
2022/11/18 11:18:55;;;;;;;11.93;1.83;;;13.10;72.00;;;;;;4981970;28;20092;-86
2022/11/18 11:21:39;;;;;;;6.88;1.60;;;13.20;71.90;;;;;;4987882;28;20037;-81
2022/11/18 11:24:26;;;;;;;3.38;0.95;;;13.30;71.90;;;;;;4987892;28;20049;-85
2022/11/18 11:27:19;;;;;;;4.22;1.30;;;13.30;71.70;;;;;;4986018;28;20053;-82
2022/11/18 11:30:20;;;;;;;4.38;1.13;;;13.30;71.50;;;;;;4984941;28;20097;-79
2022/11/18 11:33:37;;;;;;;3.83;1.25;;;13.40;71.40;;;;;;4982465;28;20041;-82
2022/11/18 11:36:30;;;;;;;3.83;1.25;;;13.50;71.50;;;;;;4978023;28;20228;-81
2022/11/18 11:39:20;;;;;;;5.07;2.35;;;13.60;71.40;;;;;;4984602;28;20050;-81
2022/11/18 11:42:25;;;;;;;4.75;1.30;;;13.70;71.50;;;;;;4972021;28;20108;-81
2022/11/18 11:45:47;;;;;;;5.63;1.33;;;13.80;71.30;;;;;;4983255;28;20042;-81
2022/11/18 11:49:09;;;;;;;4.25;1.23;;;13.90;71.00;;;;;;4985426;28;20108;-81
2022/11/18 11:52:00;;;;;;;4.82;2.65;;;14.00;70.80;;;;;;4986908;28;20130;-78
2022/11/18 11:55:14;;;;;;;4.45;1.30;;;14.10;70.80;;;;;;4992293;28;20591;-79
2022/11/18 11:58:24;;;;;;;19.85;3.97;;;14.30;70.90;;;;;;4985648;28;20045;-79
2022/11/18 12:01:37;;;;;;;15.40;4.32;;;14.40;70.90;;;;;;4990013;28;20434;-80
2022/11/18 12:04:28;;;;;;;15.02;3.22;;;14.50;70.90;;;;;;4992508;28;20116;-80
2022/11/18 12:07:22;;;;;;;11.07;2.97;;;14.60;70.90;;;;;;4993552;28;20502;-82
2022/11/18 12:10:31;;;;;;;19.92;3.10;;;14.60;70.70;;;;;;4983907;28;20134;-81
2022/11/18 12:13:42;;;;;;;10.45;3.00;;;14.70;70.70;;;;;;4978324;28;20100;-81
2022/11/18 12:16:43;;;;;;;15.02;3.80;;;14.70;70.40;;;;;;4983890;28;20045;-83
2022/11/18 12:19:28;;;;;;;9.02;2.22;;;14.80;70.50;;;;;;4980560;28;20094;-81
2022/11/18 12:22:13;;;;;;;8.00;3.42;;;14.80;70.30;;;;;;4987468;28;20640;-80
2022/11/18 12:25:36;;;;;;;11.52;2.33;;;14.80;70.10;;;;;;4991216;28;20045;-80
2022/11/18 12:28:41;;;;;;;9.70;2.23;;;14.80;69.90;;;;;;4985521;28;20045;-79
2022/11/18 12:31:31;;;;;;;5.82;1.92;;;14.90;70.00;;;;;;5006224;28;20057;-79
2022/11/18 12:34:30;;;;;;;9.00;3.20;;;15.00;70.00;;;;;;5008848;28;20042;-77
2022/11/18 12:37:34;;;;;;;8.45;2.58;;;15.00;69.70;;;;;;4999301;28;20040;-81
2022/11/18 12:40:38;;;;;;;6.90;1.73;;;15.10;69.50;;;;;;4986678;28;20254;-82
2022/11/18 12:43:47;;;;;;;5.50;2.05;;;15.10;69.20;;;;;;4986434;28;20045;-82
2022/11/18 12:46:46;;;;;;;5.63;1.65;;;15.10;69.30;;;;;;4974807;28;20450;-79
2022/11/18 12:49:30;;;;;;;6.25;1.60;;;15.10;69.10;;;;;;4983829;28;20061;-79
2022/11/18 12:52:30;;;;;;;6.75;2.50;;;15.20;69.10;;;;;;4982626;28;20517;-79
2022/11/18 12:55:20;;;;;;;5.15;1.70;;;15.20;68.80;;;;;;4977158;28;20550;-82
2022/11/18 12:58:21;;;;;;;6.10;2.35;;;15.20;68.60;;;;;;4969471;28;20118;-80
2022/11/18 13:01:09;;;;;;;5.05;2.45;;;15.30;68.40;;;;;;4983213;28;20049;-82
2022/11/18 13:04:13;;;;;;;5.22;1.67;;;15.40;68.40;;;;;;4986086;28;20645;-84
2022/11/18 13:06:59;;;;;;;6.70;2.55;;;15.50;68.20;;;;;;4984194;28;20076;-85
2022/11/18 13:09:45;;;;;;;5.07;1.60;;;15.60;68.30;;;;;;4983825;28;20178;-80
2022/11/18 13:12:31;;;;;;;4.65;2.22;;;15.70;68.30;;;;;;4985009;28;20168;-88
2022/11/18 13:18:20;;;;;;;6.38;1.85;;;15.80;67.80;;;;;;4985039;28;20046;-87
2022/11/18 13:24:20;;;;;;;5.10;1.90;;;15.80;67.50;;;;;;4985464;28;20081;-85
2022/11/18 13:27:04;;;;;;;4.47;1.90;;;15.70;67.20;;;;;;4981095;28;20105;-82
2022/11/18 13:30:00;;;;;;;4.57;1.83;;;15.60;67.10;;;;;;4984283;28;20065;-89
2022/11/18 13:32:46;;;;;;;6.07;1.33;;;15.60;67.10;;;;;;4969338;28;20100;-85
2022/11/18 13:35:31;;;;;;;3.90;1.40;;;15.50;67.10;;;;;;4981503;28;20720;-91
2022/11/18 13:38:23;;;;;;;9.75;3.42;;;15.40;66.90;;;;;;4986266;28;20097;-85
2022/11/18 13:41:22;;;;;;;6.50;1.67;;;15.40;66.90;;;;;;4975706;28;20052;-83
2022/11/18 13:44:24;;;;;;;5.90;1.98;;;15.30;66.60;;;;;;4986541;28;20041;-84
2022/11/18 13:47:23;;;;;;;3.95;1.60;;;15.20;66.50;;;;;;4980462;28;20096;-85
2022/11/18 13:50:26;;;;;;;3.22;1.10;;;15.20;66.40;;;;;;4984619;28;20060;-85
2022/11/18 13:53:17;;;;;;;7.88;2.00;;;15.10;66.20;;;;;;4984677;28;20097;-85
2022/11/18 13:56:15;;;;;;;3.28;1.80;;;15.10;66.30;;;;;;4979489;28;20061;-86
2022/11/18 13:59:00;;;;;;;6.95;2.40;;;15.00;66.10;;;;;;4980393;28;20061;-85
2022/11/18 14:01:47;;;;;;;7.28;3.17;;;15.00;66.20;;;;;;4974697;28;20044;-85
2022/11/18 14:04:31;;;;;;;4.65;1.50;;;14.90;66.00;;;;;;4980777;28;20100;-85
2022/11/18 14:07:52;;;;;;;5.05;1.98;;;14.90;66.00;;;;;;4984154;28;20065;-84
2022/11/18 14:10:43;;;;;;;4.95;1.77;;;14.80;65.40;;;;;;4982593;28;20088;-84
2022/11/18 14:13:30;;;;;;;3.40;1.27;;;14.80;66.20;;;;;;4985044;28;20093;-78
2022/11/18 14:16:18;;;;;;;7.32;3.50;;;14.80;66.10;;;;;;4973050;28;20041;-85
2022/11/18 14:19:03;;;;;;;6.53;2.38;;;14.80;65.40;;;;;;4985093;28;20053;-84
2022/11/18 14:21:48;;;;;;;8.10;3.05;;;14.80;65.40;;;;;;4979110;28;20101;-82
2022/11/18 14:24:32;;;;;;;5.95;2.10;;;14.80;65.40;;;;;;4984826;28;20630;-86
2022/11/18 14:27:38;;;;;;;3.88;2.15;;;14.80;65.30;;;;;;4985685;28;20081;-84
2022/11/18 14:30:33;;;;;;;5.20;1.27;;;14.80;64.90;;;;;;4981988;28;20184;-85
2022/11/18 14:33:23;;;;;;;4.38;1.35;;;14.70;64.80;;;;;;4985626;28;20045;-90
2022/11/18 14:36:14;;;;;;;5.07;1.92;;;14.70;65.00;;;;;;4986091;28;20127;-90
2022/11/18 14:38:59;;;;;;;5.07;1.08;;;14.60;64.80;;;;;;4981967;28;20093;-89
2022/11/18 14:41:46;;;;;;;5.38;1.40;;;14.60;64.90;;;;;;4978525;28;20084;-85
2022/11/18 14:44:31;;;;;;;4.45;1.15;;;14.50;64.80;;;;;;4967917;28;20513;-85
2022/11/18 14:47:27;;;;;;;6.63;1.20;;;14.50;64.90;;;;;;4978728;28;20189;-84
2022/11/18 14:50:13;;;;;;;5.18;2.00;;;14.40;64.50;;;;;;4982718;28;20066;-81
2022/11/18 14:52:57;;;;;;;7.88;1.42;;;14.40;64.70;;;;;;4983064;28;20352;-79
2022/11/18 14:55:50;;;;;;;3.92;1.40;;;14.30;64.60;;;;;;4983466;28;20092;-77
2022/11/18 14:58:34;;;;;;;4.07;1.42;;;14.20;64.30;;;;;;4983333;28;20081;-76
2022/11/18 15:01:19;;;;;;;4.57;1.02;;;14.20;64.50;;;;;;4982592;28;20045;-78
2022/11/18 15:04:03;;;;;;;5.25;1.70;;;14.10;64.40;;;;;;4978693;28;20037;-83